Time;durP1;ratioP1;P1;durP2;ratioP2;P2;SDS_P1;SDS_P2;PMS_P1;PMS_P2;Temp;Humidity;BMP_temperature;BMP_pressure;BME280_temperature;BME280_humidity;BME280_pressure;Samples;Min_cycle;Max_cycle;Signal;HPM_P1;HPM_P2
2022/09/10 00:00:20;;;;;;;;;;;;;;;-144.99;100.00;52366.56;5067318;28;19924;-70
2022/09/10 00:02:47;;;;;;;;;;;;;;;-144.99;100.00;52358.41;5065012;28;20545;-71
2022/09/10 00:05:13;;;;;;;;;;;;;;;-144.99;100.00;52342.09;5067313;28;19929;-71
2022/09/10 00:07:39;;;;;;;;;;;;;;;-144.99;100.00;52346.19;5066763;28;19928;-71
2022/09/10 00:10:06;;;;;;;;;;;;;;;-144.99;100.00;52413.44;5067250;28;20011;-72
2022/09/10 00:12:33;;;;;;;;;;;;;;;-144.99;100.00;52350.25;5058144;28;19924;-72
2022/09/10 00:15:01;;;;;;;;;;;;;;;-144.99;100.00;52362.50;5066080;28;19952;-71
2022/09/10 00:17:27;;;;;;;;;;;;;;;-144.99;100.00;52380.84;5064592;28;19987;-71
2022/09/10 00:19:54;;;;;;;;;;;;;;;-144.99;100.00;52358.41;5067942;28;19983;-72
2022/09/10 00:22:21;;;;;;;;;;;;;;;-144.99;100.00;52415.47;5066821;28;19934;-71
2022/09/10 00:24:47;;;;;;;;;;;;;;;-144.99;100.00;52374.72;5066565;28;20017;-72
2022/09/10 00:27:14;;;;;;;;;;;;;;;-144.99;100.00;52329.88;5066337;28;19931;-72
2022/09/10 00:29:40;;;;;;;;;;;;;;;-144.99;100.00;52338.03;5066848;28;20007;-71
2022/09/10 00:32:08;;;;;;;;;;;;;;;-144.99;100.00;52352.28;5067538;28;20046;-71
2022/09/10 00:34:35;;;;;;;;;;;;;;;-144.99;100.00;52360.44;5069669;28;20011;-71
2022/09/10 00:37:01;;;;;;;;;;;;;;;-144.99;100.00;52356.38;5075043;28;19934;-71
2022/09/10 00:39:27;;;;;;;;;;;;;;;-144.99;100.00;52342.09;5068971;28;19932;-71
2022/09/10 00:41:54;;;;;;;;;;;;;;;-144.99;100.00;52344.16;5066235;28;20025;-71
2022/09/10 00:44:39;;;;;;;;;;;;;;;-144.99;100.00;52386.94;5067056;28;20315;-71
2022/09/10 00:47:07;;;;;;;;;;;;;;;-144.99;100.00;52370.63;5064747;28;19925;-71
2022/09/10 00:49:37;;;;;;;;;;;;;;;-144.99;100.00;52358.41;5067684;28;19928;-71
2022/09/10 00:52:04;;;;;;;;;;;;;;;-144.99;100.00;52366.56;5066478;28;20363;-71
2022/09/10 00:54:32;;;;;;;;;;;;;;;-144.99;100.00;52344.16;5061869;28;19928;-71
2022/09/10 00:57:01;;;;;;;;;;;;;;;-144.99;100.00;52407.31;5064918;28;19975;-71
2022/09/10 00:59:27;;;;;;;;;;;;;;;-144.99;100.00;52338.03;5066721;28;19928;-72
2022/09/10 01:01:54;;;;;;;;;;;;;;;-144.99;100.00;52391.03;5063792;28;19928;-72
2022/09/10 01:04:21;;;;;;;;;;;;;;;-144.99;100.00;52358.41;5066819;28;19931;-74
2022/09/10 01:06:50;;;;;;;;;;;;;;;-144.99;100.00;52317.66;5066769;28;19950;-72
2022/09/10 01:09:17;;;;;;;;;;;;;;;-144.99;100.00;52362.50;5067101;28;19924;-71
2022/09/10 01:11:52;;;;;;;;;;;;;;;-144.99;100.00;52386.94;5064713;28;20406;-71
2022/09/10 01:14:31;;;;;;;;;;;;;;;-144.99;100.00;52388.97;5065220;28;19928;-71
2022/09/10 01:17:03;;;;;;;;;;;;;;;-144.99;100.00;52350.25;5061077;28;19943;-70
2022/09/10 01:19:51;;;;;;;;;;;;;;;-144.99;100.00;52342.09;5066031;28;19928;-71
2022/09/10 01:22:24;;;;;;;;;;;;;;;-144.99;100.00;52362.50;5065807;28;19925;-71
2022/09/10 01:24:53;;;;;;;;;;;;;;;-144.99;100.00;52399.19;5065879;28;19925;-71
2022/09/10 01:27:26;;;;;;;;;;;;;;;-144.99;100.00;52374.72;5066494;28;19929;-70
2022/09/10 01:29:56;;;;;;;;;;;;;;;-144.99;100.00;52366.56;5070570;28;20322;-71
2022/09/10 01:32:26;;;;;;;;;;;;;;;-144.99;100.00;52366.56;5067149;28;19928;-71
2022/09/10 01:34:54;;;;;;;;;;;;;;;-144.99;100.00;52366.56;5068626;28;19928;-71
2022/09/10 01:37:24;;;;;;;;;;;;;;;-144.99;100.00;52354.34;5069912;28;19954;-70
2022/09/10 01:39:52;;;;;;;;;;;;;;;-144.99;100.00;52370.63;5069990;28;19932;-73
2022/09/10 01:42:18;;;;;;;;;;;;;;;-144.99;100.00;52350.25;5068614;28;19925;-73
2022/09/10 01:44:47;;;;;;;;;;;;;;;-144.99;100.00;52395.09;5069554;28;19929;-73
2022/09/10 01:47:24;;;;;;;;;;;;;;;-144.99;100.00;52380.84;5067662;28;20379;-72
2022/09/10 01:50:00;;;;;;;;;;;;;;;-144.99;100.00;52372.69;5070453;28;19925;-73
2022/09/10 01:52:32;;;;;;;;;;;;;;;-144.99;100.00;52370.63;5066590;28;19928;-71
2022/09/10 01:55:03;;;;;;;;;;;;;;;-144.99;100.00;52362.50;5069965;28;19928;-72
2022/09/10 01:57:36;;;;;;;;;;;;;;;-144.99;100.00;52370.63;5069095;28;20387;-71
2022/09/10 02:00:06;;;;;;;;;;;;;;;-144.99;100.00;52346.19;5069954;28;19924;-71
2022/09/10 02:02:36;;;;;;;;;;;;;;;-144.99;100.00;52364.53;5067724;28;20003;-71
2022/09/10 02:05:03;;;;;;;;;;;;;;;-144.99;100.00;52342.09;5070209;28;20434;-71
2022/09/10 02:07:31;;;;;;;;;;;;;;;-144.99;100.00;52374.72;5072726;28;20411;-72
2022/09/10 02:09:58;;;;;;;;;;;;;;;-144.99;100.00;52391.03;5094686;28;19929;-70
2022/09/10 02:12:24;;;;;;;;;;;;;;;-144.99;100.00;52360.44;5076850;28;19928;-71
2022/09/10 02:14:51;;;;;;;;;;;;;;;-144.99;100.00;52362.50;5080330;28;19931;-71
2022/09/10 02:17:20;;;;;;;;;;;;;;;-144.99;100.00;52382.88;5079359;28;19928;-70
2022/09/10 02:19:47;;;;;;;;;;;;;;;-144.99;100.00;52354.34;5080390;28;19925;-71
2022/09/10 02:22:14;;;;;;;;;;;;;;;-144.99;100.00;52315.59;5072837;28;20410;-71
2022/09/10 02:24:43;;;;;;;;;;;;;;;-144.99;100.00;52333.94;5077148;28;19955;-71
2022/09/10 02:27:09;;;;;;;;;;;;;;;-144.99;100.00;52370.63;5080146;28;19936;-71
2022/09/10 02:29:36;;;;;;;;;;;;;;;-144.99;100.00;52395.09;5078838;28;20015;-71
2022/09/10 02:32:03;;;;;;;;;;;;;;;-144.99;100.00;52366.56;5073747;28;19929;-71
2022/09/10 02:34:30;;;;;;;;;;;;;;;-144.99;100.00;52401.22;5074300;28;19963;-71
2022/09/10 02:36:57;;;;;;;;;;;;;;;-144.99;100.00;52358.41;5075379;28;19924;-72
2022/09/10 02:39:23;;;;;;;;;;;;;;;-144.99;100.00;52366.56;5072610;28;19925;-71
2022/09/10 02:41:50;;;;;;;;;;;;;;;-144.99;100.00;52382.88;5075941;28;19928;-72
2022/09/10 02:44:16;;;;;;;;;;;;;;;-144.99;100.00;52401.22;5071724;28;20054;-73
2022/09/10 02:46:43;;;;;;;;;;;;;;;-144.99;100.00;52378.78;5075226;28;19925;-72
2022/09/10 02:49:10;;;;;;;;;;;;;;;-144.99;100.00;52427.72;5079149;28;19924;-72
2022/09/10 02:51:38;;;;;;;;;;;;;;;-144.99;100.00;52403.25;5077322;28;19983;-72
2022/09/10 02:54:04;;;;;;;;;;;;;;;-144.99;100.00;52325.81;5103629;22;19947;-80
2022/09/10 02:56:31;;;;;;;;;;;;;;;-144.99;100.00;52344.16;5085597;28;19930;-81
2022/09/10 02:58:57;;;;;;;;;;;;;;;-144.99;100.00;52378.78;5094726;28;19934;-81
2022/09/10 03:01:24;;;;;;;;;;;;;;;-144.99;100.00;52370.63;5095313;28;19934;-77
2022/09/10 03:03:50;;;;;;;;;;;;;;;-144.99;100.00;52382.88;5091070;28;19993;-77
2022/09/10 03:06:17;;;;;;;;;;;;;;;-144.99;100.00;52340.06;5090352;28;19931;-78
2022/09/10 03:08:44;;;;;;;;;;;;;;;-144.99;100.00;52358.41;5095629;28;19928;-80
2022/09/10 03:11:14;;;;;;;;;;;;;;;-144.99;100.00;52374.72;5105909;28;19935;-78
2022/09/10 03:13:41;;;;;;;;;;;;;;;-144.99;100.00;52325.81;5103017;28;20202;-81
2022/09/10 03:16:08;;;;;;;;;;;;;;;-144.99;100.00;52358.41;5111925;28;19927;-80
2022/09/10 03:18:35;;;;;;;;;;;;;;;-144.99;100.00;52382.88;5105290;28;19958;-81
2022/09/10 03:21:08;;;;;;;;;;;;;;;-144.99;100.00;52374.72;5095651;28;19936;-80
2022/09/10 03:23:34;;;;;;;;;;;;;;;-144.99;100.00;52399.19;5113318;28;19989;-80
2022/09/10 03:26:03;;;;;;;;;;;;;;;-144.99;100.00;52346.19;5113524;28;20007;-80
2022/09/10 03:28:29;;;;;;;;;;;;;;;-144.99;100.00;52378.78;5111264;28;19924;-80
2022/09/10 03:30:56;;;;;;;;;;;;;;;-144.99;100.00;52378.78;5090648;28;19928;-80
2022/09/10 03:33:22;;;;;;;;;;;;;;;-144.99;100.00;52350.25;5107896;28;20002;-79
2022/09/10 03:35:48;;;;;;;;;;;;;;;-144.99;100.00;52370.63;5113345;28;19913;-80
2022/09/10 03:38:15;;;;;;;;;;;;;;;-144.99;100.00;52344.16;5113931;28;19943;-78
2022/09/10 03:40:41;;;;;;;;;;;;;;;-144.99;100.00;52378.78;5113643;28;19976;-77
2022/09/10 03:43:09;;;;;;;;;;;;;;;-144.99;100.00;52350.25;5113459;28;19944;-81
2022/09/10 03:45:35;;;;;;;;;;;;;;;-144.99;100.00;52342.09;5113887;28;19932;-79
2022/09/10 03:48:02;;;;;;;;;;;;;;;-144.99;100.00;52370.63;5111485;28;20008;-77
2022/09/10 03:50:29;;;;;;;;;;;;;;;-144.99;100.00;52321.72;5113089;28;19916;-76
2022/09/10 03:52:56;;;;;;;;;;;;;;;-144.99;100.00;52338.03;5113028;28;19924;-80
2022/09/10 03:55:22;;;;;;;;;;;;;;;-144.99;100.00;52342.09;5113615;28;19919;-78
2022/09/10 03:57:48;;;;;;;;;;;;;;;-144.99;100.00;52338.03;5113656;28;19968;-81
2022/09/10 04:00:16;;;;;;;;;;;;;;;-144.99;100.00;52358.41;5113753;28;19912;-80
2022/09/10 04:02:43;;;;;;;;;;;;;;;-144.99;100.00;52374.72;5111895;28;19967;-81
2022/09/10 04:05:09;;;;;;;;;;;;;;;-144.99;100.00;52370.63;5113474;28;19928;-80
2022/09/10 04:07:36;;;;;;;;;;;;;;;-144.99;100.00;52362.50;5113095;28;19923;-80
2022/09/10 04:10:03;;;;;;;;;;;;;;;-144.99;100.00;52378.78;5113489;28;19935;-80
2022/09/10 04:12:29;;;;;;;;;;;;;;;-144.99;100.00;52354.34;5104769;28;19955;-80
2022/09/10 04:14:56;;;;;;;;;;;;;;;-144.99;100.00;52395.09;5112538;28;19948;-78
2022/09/10 04:17:24;;;;;;;;;;;;;;;-144.99;100.00;52362.50;5112032;28;19912;-80
2022/09/10 04:19:50;;;;;;;;;;;;;;;-144.99;100.00;52354.34;5112790;28;19916;-82
2022/09/10 04:22:17;;;;;;;;;;;;;;;-144.99;100.00;52391.03;5112540;28;19919;-80
2022/09/10 04:24:43;;;;;;;;;;;;;;;-144.99;100.00;52378.78;5109624;28;20554;-79
2022/09/10 04:27:10;;;;;;;;;;;;;;;-144.99;100.00;52431.78;5109834;28;19984;-78
2022/09/10 04:29:36;;;;;;;;;;;;;;;-144.99;100.00;52391.03;5108913;28;19978;-78
2022/09/10 04:32:03;;;;;;;;;;;;;;;-144.99;100.00;52386.94;5101535;28;19924;-78
2022/09/10 04:34:31;;;;;;;;;;;;;;;-144.99;100.00;52382.88;5103987;28;19912;-78
2022/09/10 04:36:57;;;;;;;;;;;;;;;-144.99;100.00;52399.19;5103979;28;19924;-78
2022/09/10 04:39:23;;;;;;;;;;;;;;;-144.99;100.00;52342.09;5104973;28;19984;-79
2022/09/10 04:41:50;;;;;;;;;;;;;;;-144.99;100.00;52350.25;5103997;28;20231;-79
2022/09/10 04:44:19;;;;;;;;;;;;;;;-144.99;100.00;52362.50;5103382;28;19939;-79
2022/09/10 04:46:46;;;;;;;;;;;;;;;-144.99;100.00;52384.91;5095229;28;20163;-77
2022/09/10 04:49:12;;;;;;;;;;;;;;;-144.99;100.00;52362.50;5097353;28;19974;-80
2022/09/10 04:51:40;;;;;;;;;;;;;;;-144.99;100.00;52366.56;5096574;28;20336;-79
2022/09/10 04:54:07;;;;;;;;;;;;;;;-144.99;100.00;52376.75;5095043;28;19931;-76
2022/09/10 04:56:33;;;;;;;;;;;;;;;-144.99;100.00;52415.47;5094834;28;19928;-79
2022/09/10 04:59:00;;;;;;;;;;;;;;;-144.99;100.00;52391.03;5095069;28;19924;-78
2022/09/10 05:01:27;;;;;;;;;;;;;;;-144.99;100.00;52403.25;5091914;28;20357;-78
2022/09/10 05:03:54;;;;;;;;;;;;;;;-144.99;100.00;52374.72;5094099;28;19928;-77
2022/09/10 05:06:20;;;;;;;;;;;;;;;-144.99;100.00;52378.78;5091853;28;20299;-77
2022/09/10 05:08:48;;;;;;;;;;;;;;;-144.99;100.00;52401.22;5092103;28;19924;-77
2022/09/10 05:11:14;;;;;;;;;;;;;;;-144.99;100.00;52352.28;5093612;28;19928;-74
2022/09/10 05:13:41;;;;;;;;;;;;;;;-144.99;100.00;52399.19;5092413;28;19928;-76
2022/09/10 05:16:08;;;;;;;;;;;;;;;-144.99;100.00;52382.88;5089791;28;20011;-76
2022/09/10 05:18:34;;;;;;;;;;;;;;;-144.99;100.00;52378.78;5092300;28;20299;-80
2022/09/10 05:21:00;;;;;;;;;;;;;;;-144.99;100.00;52378.78;5091284;28;19935;-78
2022/09/10 05:23:27;;;;;;;;;;;;;;;-144.99;100.00;52350.25;5093126;28;19944;-79
2022/09/10 05:25:55;;;;;;;;;;;;;;;-144.99;100.00;52386.94;5079233;28;19931;-79
2022/09/10 05:28:21;;;;;;;;;;;;;;;-144.99;100.00;52386.94;5090911;28;20019;-79
2022/09/10 05:30:48;;;;;;;;;;;;;;;-144.99;100.00;52333.94;5091490;28;19930;-78
2022/09/10 05:33:15;;;;;;;;;;;;;;;-144.99;100.00;52378.78;5089276;28;19991;-79
2022/09/10 05:35:41;;;;;;;;;;;;;;;-144.99;100.00;52374.72;5104325;28;19955;-79
2022/09/10 05:38:09;;;;;;;;;;;;;;;-144.99;100.00;52374.72;5111734;28;19935;-79
2022/09/10 05:40:36;;;;;;;;;;;;;;;-144.99;100.00;52378.78;5111454;28;19962;-81
2022/09/10 05:43:04;;;;;;;;;;;;;;;-144.99;100.00;52366.56;5110858;28;19912;-81
2022/09/10 05:45:30;;;;;;;;;;;;;;;-144.99;100.00;52354.34;5110888;28;19996;-79
2022/09/10 05:47:57;;;;;;;;;;;;;;;-144.99;100.00;52333.94;5109485;28;19918;-77
2022/09/10 05:50:23;;;;;;;;;;;;;;;-144.99;100.00;52378.78;5110334;28;19991;-77
2022/09/10 05:52:49;;;;;;;;;;;;;;;-144.99;100.00;52352.28;5099794;28;19950;-77
2022/09/10 05:55:16;;;;;;;;;;;;;;;-144.99;100.00;52411.41;5110349;28;19987;-78
2022/09/10 05:57:42;;;;;;;;;;;;;;;-144.99;100.00;52366.56;5110481;28;19922;-79
2022/09/10 06:00:10;;;;;;;;;;;;;;;-144.99;100.00;52362.50;5108455;28;19992;-76
2022/09/10 06:02:37;;;;;;;;;;;;;;;-144.99;100.00;52321.72;5105568;28;20000;-80
2022/09/10 06:05:03;;;;;;;;;;;;;;;-144.99;100.00;52346.19;5104131;28;19928;-83
2022/09/10 06:07:30;;;;;;;;;;;;;;;-144.99;100.00;52356.38;5105877;28;19927;-81
2022/09/10 06:09:57;;;;;;;;;;;;;;;-144.99;100.00;52329.88;5095432;28;20328;-80
2022/09/10 06:12:23;;;;;;;;;;;;;;;-144.99;100.00;52354.34;5093355;28;19924;-80
2022/09/10 06:14:49;;;;;;;;;;;;;;;-144.99;100.00;52342.09;5104183;28;19935;-82
2022/09/10 06:17:17;;;;;;;;;;;;;;;-144.99;100.00;52333.94;5101155;28;19971;-79
2022/09/10 06:19:44;;;;;;;;;;;;;;;-144.99;100.00;52366.56;5104206;28;19924;-80
2022/09/10 06:22:10;;;;;;;;;;;;;;;-144.99;100.00;52327.84;5098333;28;19931;-81
2022/09/10 06:24:37;;;;;;;;;;;;;;;-144.99;100.00;52342.09;5094525;28;20411;-80
2022/09/10 06:27:04;;;;;;;;;;;;;;;-144.99;100.00;52295.22;5093882;28;19943;-79
2022/09/10 06:29:30;;;;;;;;;;;;;;;-144.99;100.00;52323.75;5096738;28;19931;-78
2022/09/10 06:31:56;;;;;;;;;;;;;;;-144.99;100.00;52305.41;5094685;28;19927;-79
2022/09/10 06:34:24;;;;;;;;;;;;;;;-144.99;100.00;52325.81;5092896;28;20422;-77
2022/09/10 06:36:51;;;;;;;;;;;;;;;-144.99;100.00;52283.00;5093788;28;19946;-79
2022/09/10 06:39:18;;;;;;;;;;;;;;;-144.99;100.00;52309.50;5095106;28;19924;-78
2022/09/10 06:41:44;;;;;;;;;;;;;;;-144.99;100.00;52289.13;5095011;28;19924;-76
2022/09/10 06:44:11;;;;;;;;;;;;;;;-144.99;100.00;52338.03;5096073;28;19928;-78
2022/09/10 06:46:37;;;;;;;;;;;;;;;-144.99;100.00;52321.72;5093893;28;19928;-82
2022/09/10 06:49:04;;;;;;;;;;;;;;;-144.99;100.00;52289.13;5090463;28;19932;-83
2022/09/10 06:51:32;;;;;;;;;;;;;;;-144.99;100.00;52346.19;5096738;28;19924;-82
2022/09/10 06:53:59;;;;;;;;;;;;;;;-144.99;99.64;52362.50;5105445;28;19961;-82
2022/09/10 06:56:26;;;;;;;;;;;;;;;-144.99;99.10;52313.56;5115030;28;19912;-83
2022/09/10 06:58:52;;;;;;;;;;;;;;;-144.99;98.65;52285.03;5100104;28;19931;-80
2022/09/10 07:01:19;;;;;;;;;;;;;;;-144.99;98.28;52280.97;5096011;28;19958;-82
2022/09/10 07:03:46;;;;;;;;;;;;;;;-144.99;97.93;52317.66;5094213;28;19973;-83
2022/09/10 07:06:14;;;;;;;;;;;;;;;-144.99;98.42;52311.53;5091292;28;19931;-82
2022/09/10 07:08:41;;;;;;;;;;;;;;;-144.99;98.56;52309.50;5094248;28;19932;-81
2022/09/10 07:11:11;;;;;;;;;;;;;;;-144.99;97.50;52301.34;5091906;28;19935;-73
2022/09/10 07:13:37;;;;;;;;;;;;;;;-144.99;96.00;52311.53;5088180;28;19924;-76
2022/09/10 07:16:03;;;;;;;;;;;;;;;-144.99;95.37;52301.34;5081511;28;19928;-73
2022/09/10 07:18:30;;;;;;;;;;;;;;;-144.99;94.32;52293.19;5085300;28;19924;-76
2022/09/10 07:21:06;;;;;;;;;;;;;;;-144.99;93.90;52333.94;5089291;28;20030;-74
2022/09/10 07:23:32;;;;;;;;;;;;;;;-144.99;92.11;52370.63;5087490;28;19939;-75
2022/09/10 07:26:03;;;;;;;;;;;;;;;-144.99;92.78;52285.03;5084589;28;19931;-74
2022/09/10 07:28:30;;;;;;;;;;;;;;;-144.99;92.70;52270.78;5088335;28;20195;-74
2022/09/10 07:30:57;;;;;;;;;;;;;;;-144.99;91.82;52317.66;5087761;28;19968;-72
2022/09/10 07:33:24;;;;;;;;;;;;;;;-144.99;91.24;52325.81;5080759;28;19925;-73
2022/09/10 07:35:50;;;;;;;;;;;;;;;-144.99;91.84;52266.69;5082320;28;19939;-77
2022/09/10 07:38:16;;;;;;;;;;;;;;;-144.99;92.60;52303.38;5084919;28;19932;-76
2022/09/10 07:40:43;;;;;;;;;;;;;;;-144.99;93.21;52301.34;5084472;28;19928;-77
2022/09/10 07:43:11;;;;;;;;;;;;;;;-144.99;93.22;52327.84;5088880;28;19928;-77
2022/09/10 07:45:37;;;;;;;;;;;;;;;-144.99;92.11;52276.88;5089633;28;19935;-77
2022/09/10 07:48:04;;;;;;;;;;;;;;;-144.99;92.82;52321.72;5086297;28;19932;-77
2022/09/10 07:50:30;;;;;;;;;;;;;;;-144.99;91.96;52342.09;5086913;28;19928;-76
2022/09/10 07:52:56;;;;;;;;;;;;;;;-144.99;92.42;52260.56;5086480;28;19928;-77
2022/09/10 07:55:23;;;;;;;;;;;;;;;-144.99;91.66;52293.19;5082742;28;20038;-80
2022/09/10 07:57:49;;;;;;;;;;;;;;;-144.99;90.95;52297.25;5086656;28;19929;-78
2022/09/10 08:00:17;;;;;;;;;;;;;;;-144.99;89.14;52260.56;5086475;28;19935;-79
2022/09/10 08:02:44;;;;;;;;;;;;;;;-144.99;87.55;52278.91;5084582;28;19981;-78
2022/09/10 08:05:11;;;;;;;;;;;;;;;-144.99;86.49;52266.69;5086763;28;19938;-78
2022/09/10 08:07:38;;;;;;;;;;;;;;;-144.99;86.25;52240.19;5086473;28;20010;-77
2022/09/10 08:10:06;;;;;;;;;;;;;;;-144.99;84.51;52276.88;5086802;28;19932;-78
2022/09/10 08:12:32;;;;;;;;;;;;;;;-144.99;84.31;52272.81;5073116;28;19928;-78
2022/09/10 08:14:59;;;;;;;;;;;;;;;-144.99;83.99;52248.34;5086118;28;19939;-76
2022/09/10 08:17:28;;;;;;;;;;;;;;;-144.99;80.64;52285.03;5083988;28;19951;-77
2022/09/10 08:19:55;;;;;;;;;;;;;;;-144.99;80.34;52260.56;5086485;28;19928;-74
2022/09/10 08:22:21;;;;;;;;;;;;;;;-144.99;79.87;52272.81;5083338;28;19971;-77
2022/09/10 08:24:48;;;;;;;;;;;;;;;-144.99;80.24;52297.25;5085678;28;19938;-74
2022/09/10 08:27:14;;;;;;;;;;;;;;;-144.99;79.85;52291.16;5086179;28;20017;-77
2022/09/10 08:29:41;;;;;;;;;;;;;;;-144.99;80.57;52260.56;5087025;28;19934;-77
2022/09/10 08:32:07;;;;;;;;;;;;;;;-144.99;79.92;52280.97;5084211;28;19928;-78
2022/09/10 08:34:35;;;;;;;;;;;;;;;-144.99;79.23;52276.88;5086396;28;19930;-77
2022/09/10 08:37:02;;;;;;;;;;;;;;;-144.99;78.02;52293.19;5078626;28;19929;-78
2022/09/10 08:39:29;;;;;;;;;;;;;;;-144.99;75.75;52250.38;5082125;28;20350;-77
2022/09/10 08:41:58;;;;;;;;;;;;;;;-144.99;75.06;52272.81;5084917;28;20477;-74
2022/09/10 08:44:28;;;;;;;;;;;;;;;-144.99;74.74;52309.50;5085890;28;19932;-77
2022/09/10 08:46:56;;;;;;;;;;;;;;;-144.99;73.86;52256.50;5075039;28;20150;-76
2022/09/10 08:49:29;;;;;;;;;;;;;;;-144.99;73.04;52276.88;5085783;28;19927;-79
2022/09/10 08:52:00;;;;;;;;;;;;;;;-144.99;74.05;52252.44;5085355;28;20037;-78
2022/09/10 08:54:29;;;;;;;;;;;;;;;-144.99;73.66;52289.13;5085830;28;19939;-78
2022/09/10 08:56:57;;;;;;;;;;;;;;;-144.99;73.41;52285.03;5105002;22;19928;-77
2022/09/10 08:59:25;;;;;;;;;;;;;;;-144.99;73.63;52272.81;5090134;28;20013;-77
2022/09/10 09:01:58;;;;;;;;;;;;;;;-144.99;73.19;52289.13;5087650;28;19931;-78
2022/09/10 09:04:29;;;;;;;;;;;;;;;-144.99;73.10;52234.09;5089670;28;19924;-78
2022/09/10 09:07:00;;;;;;;;;;;;;;;-144.99;72.37;52252.44;5090487;28;19928;-76
2022/09/10 09:09:27;;;;;;;;;;;;;;;-144.99;72.16;52244.28;5090292;28;20011;-78
2022/09/10 09:11:58;;;;;;;;;;;;;;;-144.99;72.34;52264.66;5087841;28;19932;-76
2022/09/10 09:14:35;;;;;;;;;;;;;;;-144.99;72.83;52278.91;5088305;28;20355;-76
2022/09/10 09:17:05;;;;;;;;;;;;;;;-144.99;73.33;52309.50;5084772;28;19984;-77
2022/09/10 09:19:33;;;;;;;;;;;;;;;-144.99;74.29;52268.72;5080391;28;20050;-77
2022/09/10 09:22:04;;;;;;;;;;;;;;;-144.99;73.72;52266.69;5086760;28;19928;-77
2022/09/10 09:24:38;;;;;;;;;;;;;;;-144.99;75.49;52270.78;5088059;28;19932;-76
2022/09/10 09:27:08;;;;;;;;;;;;;;;-144.99;76.70;52309.50;5086311;28;20010;-77
2022/09/10 09:29:37;;;;;;;;;;;;;;;-144.99;78.19;52321.72;5089364;28;19932;-78
2022/09/10 09:32:05;;;;;;;;;;;;;;;-144.99;78.29;52293.19;5085515;28;19962;-76
2022/09/10 09:34:35;;;;;;;;;;;;;;;-144.99;78.66;52338.03;4379946;28;10020770;-76
2022/09/10 09:37:04;;;;;;;;;;;;;;;-144.99;79.58;52285.03;5077859;28;19928;-76
2022/09/10 09:39:35;;;;;;;;;;;;;;;-144.99;79.68;52289.13;5070509;28;20469;-75
2022/09/10 09:42:05;;;;;;;;;;;;;;;-144.99;79.89;52305.41;5079046;28;19938;-77
2022/09/10 09:44:35;;;;;;;;;;;;;;;-144.99;78.78;52256.50;5082201;28;20015;-77
2022/09/10 09:47:02;;;;;;;;;;;;;;;-144.99;78.86;52303.38;5073161;28;19924;-77
2022/09/10 09:49:28;;;;;;;;;;;;;;;-144.99;78.73;52260.56;5083441;28;19928;-76
2022/09/10 09:51:55;;;;;;;;;;;;;;;-144.99;78.20;52313.56;5087127;28;20007;-75
2022/09/10 09:54:25;;;;;;;;;;;;;;;-144.99;76.41;52297.25;5089544;28;19933;-77
2022/09/10 09:56:53;;;;;;;;;;;;;;;-144.99;76.21;52305.41;5089355;28;19934;-77
2022/09/10 09:59:25;;;;;;;;;;;;;;;-144.99;75.72;52285.03;5092855;28;19951;-77
2022/09/10 10:01:53;;;;;;;;;;;;;;;-144.99;74.14;52291.16;5088844;28;19935;-77
2022/09/10 10:04:21;;;;;;;;;;;;;;;-144.99;73.15;52264.66;5080701;28;19938;-76
2022/09/10 10:06:53;;;;;;;;;;;;;;;-144.99;73.47;52256.50;5090860;28;20359;-77
2022/09/10 10:09:21;;;;;;;;;;;;;;;-144.99;74.06;52293.19;5088120;28;19935;-78
2022/09/10 10:11:51;;;;;;;;;;;;;;;-144.99;73.38;52297.25;5088914;28;20405;-78
2022/09/10 10:14:22;;;;;;;;;;;;;;;-144.99;71.94;52227.97;5090363;28;20325;-76
2022/09/10 10:16:50;;;;;;;;;;;;;;;-144.99;70.85;52260.56;5085748;28;19978;-74
2022/09/10 10:19:33;;;;;;;;;;;;;;;-144.99;70.84;52207.59;5087911;28;19932;-73
2022/09/10 10:22:18;;;;;;;;;;;;;;;-144.99;69.29;52240.19;5087944;28;19935;-73
2022/09/10 10:24:45;;;;;;;;;;;;;;;-144.99;68.20;52244.28;5088759;28;20477;-73
2022/09/10 10:27:16;;;;;;;;;;;;;;;-144.99;67.63;52252.44;5087281;28;19928;-73
2022/09/10 10:29:50;;;;;;;;;;;;;;;-144.99;68.34;52309.50;5088210;28;20311;-73
2022/09/10 10:32:18;;;;;;;;;;;;;;;-144.99;69.05;52227.97;5086481;28;19928;-74
2022/09/10 10:34:53;;;;;;;;;;;;;;;-144.99;68.16;52256.50;5087832;28;19935;-74
2022/09/10 10:37:26;;;;;;;;;;;;;;;-144.99;68.17;52244.28;5080052;28;20024;-73
2022/09/10 10:39:59;;;;;;;;;;;;;;;-144.99;68.11;52266.69;5088431;28;19951;-73
2022/09/10 10:42:31;;;;;;;;;;;;;;;-144.99;67.75;52236.13;5089121;28;20011;-73
2022/09/10 10:45:17;;;;;;;;;;;;;;;-144.99;66.38;52215.75;5085428;28;20418;-74
2022/09/10 10:47:47;;;;;;;;;;;;;;;-144.99;65.12;52227.97;5083289;28;19946;-74
2022/09/10 10:50:21;;;;;;;;;;;;;;;-144.99;64.30;52232.03;5088256;28;20390;-73
2022/09/10 10:52:54;;;;;;;;;;;;;;;-144.99;63.65;52197.41;5086754;28;20338;-73
2022/09/10 10:55:23;;;;;;;;;;;;;;;-144.99;61.95;52217.78;5087693;28;19934;-73
2022/09/10 10:57:57;;;;;;;;;;;;;;;-144.99;62.01;52174.97;5086957;28;20004;-72
2022/09/10 11:00:24;;;;;;;;;;;;;;;-144.99;62.04;52244.28;5087203;28;19928;-72
2022/09/10 11:02:53;;;;;;;;;;;;;;;-144.99;62.00;52219.81;5080502;28;19982;-74
2022/09/10 11:05:24;;;;;;;;;;;;;;;-144.99;62.47;52219.81;5081170;28;19938;-73
2022/09/10 11:07:51;;;;;;;;;;;;;;;-144.99;60.33;52146.44;5083948;28;19934;-72
2022/09/10 11:10:22;;;;;;;;;;;;;;;-144.99;57.89;52134.22;5087329;28;19950;-73
2022/09/10 11:12:52;;;;;;;;;;;;;;;-144.99;56.14;52138.28;5085619;28;20330;-72
2022/09/10 11:15:23;;;;;;;;;;;;;;;-144.99;54.39;52174.97;5086966;28;20287;-73
2022/09/10 11:17:53;;;;;;;;;;;;;;;-144.99;52.86;52179.06;5075410;28;19935;-74
2022/09/10 11:20:22;;;;;;;;;;;;;;;-144.99;51.25;52150.53;5086134;28;19939;-74
2022/09/10 11:22:51;;;;;;;;;;;;;;;-144.99;52.09;52089.38;5086805;28;20592;-75
2022/09/10 11:25:19;;;;;;;;;;;;;;;-144.99;50.88;52187.19;5086477;28;20402;-73
2022/09/10 11:27:48;;;;;;;;;;;;;;;-144.99;50.51;52085.31;5086038;28;19930;-75
2022/09/10 11:30:16;;;;;;;;;;;;;;;-144.99;47.96;51981.38;5085451;28;20026;-74
2022/09/10 11:32:45;;;;;;;;;;;;;;;-144.99;45.28;52126.06;5078981;28;19935;-73
2022/09/10 11:35:16;;;;;;;;;;;;;;;-144.99;44.79;52069.00;5084769;28;19928;-73
2022/09/10 11:37:56;;;;;;;;;;;;;;;-144.99;44.78;52109.75;5086108;28;19930;-77
2022/09/10 11:40:27;;;;;;;;;;;;;;;-144.99;45.55;52154.59;5090165;28;19925;-76
2022/09/10 11:42:56;;;;;;;;;;;;;;;-144.99;46.16;52121.97;5090780;28;19951;-78
2022/09/10 11:45:27;;;;;;;;;;;;;;;-144.99;46.37;52146.44;5083844;28;19928;-78
2022/09/10 11:47:59;;;;;;;;;;;;;;;-144.99;46.37;52166.81;5087666;28;19927;-77
2022/09/10 11:50:30;;;;;;;;;;;;;;;-144.99;46.44;52113.84;5090692;28;20387;-78
2022/09/10 11:52:58;;;;;;;;;;;;;;;-144.99;46.13;52064.91;5090773;28;19928;-76
2022/09/10 11:55:28;;;;;;;;;;;;;;;-144.99;45.03;52117.91;5072140;28;19982;-78
2022/09/10 11:57:59;;;;;;;;;;;;;;;-144.99;44.01;52117.91;4722580;28;10000218;-77
2022/09/10 12:00:27;;;;;;;;;;;;;;;-144.99;44.06;52113.84;5083141;28;19932;-79
2022/09/10 12:03:21;;;;;;;;;;;;;;;-144.99;44.15;52121.97;5079058;28;19927;-78
2022/09/10 12:05:57;;;;;;;;;;;;;;;-144.99;44.55;52138.28;5088955;28;20015;-77
2022/09/10 12:08:31;;;;;;;;;;;;;;;-144.99;45.30;52162.75;5089372;28;19931;-78
2022/09/10 12:11:05;;;;;;;;;;;;;;;-144.99;45.66;52126.06;5086834;28;19928;-76
2022/09/10 12:13:32;;;;;;;;;;;;;;;-144.99;45.12;52146.44;5088644;28;19936;-78
2022/09/10 12:16:01;;;;;;;;;;;;;;;-144.99;45.41;52138.28;5082666;28;20323;-77
2022/09/10 12:18:31;;;;;;;;;;;;;;;-144.99;45.48;52170.91;5080151;28;20321;-79
2022/09/10 12:21:01;;;;;;;;;;;;;;;-144.99;45.19;52130.13;5082634;28;19928;-79
2022/09/10 12:23:30;;;;;;;;;;;;;;;-144.99;45.48;52048.63;5081534;28;19935;-79
2022/09/10 12:25:57;;;;;;;;;;;;;;;-144.99;44.21;51967.09;5087933;28;20018;-78